Kansas City, Missouri
Traffic Map
Current Weather Conditions
Kansas City, Missouri
Clear
Clear

Feels Like: 2°
Wind Chill: Ceiling: Unl
Heat Index: Visibility: 10mi
Dew Point: -8° Wind: 6mph
Humidity: 43% Direction: 20° (NNE)
Pressure: 30.45in Gusts: 0mph
Raw Report DataKMKC 010054Z 02005KT 10SM CLR 04/M08 A3045 RMK AO2 SLP317 T00391078
Traffic Incident Summary
Active as of:
Severity:
Category:
InformationThere was an issue retrieving the traffic information for this location. Please try a different location or try again shortly.
Advertisements
Track Severe Weather on mobile